sensor_id;sensor_type;location;lat;lon;timestamp;pressure;altitude;pressure_sealevel;temperature;humidity
70009;BME280;59542;37.950;-122.338;2022-10-22T00:01:34;100947.88;;;17.54;63.78
70009;BME280;59542;37.950;-122.338;2022-10-22T00:04:01;100948.31;;;17.46;64.60
70009;BME280;59542;37.950;-122.338;2022-10-22T00:06:27;100933.19;;;17.28;66.07
70009;BME280;59542;37.950;-122.338;2022-10-22T00:08:53;100936.78;;;17.34;65.59
70009;BME280;59542;37.950;-122.338;2022-10-22T00:11:20;100954.03;;;17.28;65.95
70009;BME280;59542;37.950;-122.338;2022-10-22T00:13:47;100943.34;;;17.38;65.25
70009;BME280;59542;37.950;-122.338;2022-10-22T00:16:13;100936.25;;;17.54;64.84
70009;BME280;59542;37.950;-122.338;2022-10-22T00:18:39;100926.19;;;17.49;64.93
70009;BME280;59542;37.950;-122.338;2022-10-22T00:21:06;100923.81;;;17.36;65.59
70009;BME280;59542;37.950;-122.338;2022-10-22T00:23:33;100918.25;;;17.26;65.68
70009;BME280;59542;37.950;-122.338;2022-10-22T00:25:59;100910.06;;;17.21;65.79
70009;BME280;59542;37.950;-122.338;2022-10-22T00:28:25;100899.44;;;17.14;66.11
70009;BME280;59542;37.950;-122.338;2022-10-22T00:30:56;100895.53;;;17.05;66.92
70009;BME280;59542;37.950;-122.338;2022-10-22T00:33:22;100884.81;;;17.15;66.41
70009;BME280;59542;37.950;-122.338;2022-10-22T00:35:49;100879.13;;;16.95;66.82
70009;BME280;59542;37.950;-122.338;2022-10-22T00:38:15;100892.50;;;16.84;67.67
70009;BME280;59542;37.950;-122.338;2022-10-22T00:40:41;100892.25;;;16.86;67.67
70009;BME280;59542;37.950;-122.338;2022-10-22T00:43:15;100886.72;;;16.64;68.31
70009;BME280;59542;37.950;-122.338;2022-10-22T00:45:42;100877.78;;;16.63;68.59
70009;BME280;59542;37.950;-122.338;2022-10-22T00:48:32;100870.09;;;16.55;68.71
70009;BME280;59542;37.950;-122.338;2022-10-22T00:51:02;100879.47;;;16.36;69.55
70009;BME280;59542;37.950;-122.338;2022-10-22T00:53:32;100867.13;;;16.40;69.72
70009;BME280;59542;37.950;-122.338;2022-10-22T00:56:00;100862.88;;;16.44;69.42
70009;BME280;59542;37.950;-122.338;2022-10-22T00:58:28;100861.38;;;16.36;69.84
70009;BME280;59542;37.950;-122.338;2022-10-22T01:00:56;100857.41;;;16.39;69.84
70009;BME280;59542;37.950;-122.338;2022-10-22T01:03:23;100847.06;;;16.36;69.88
70009;BME280;59542;37.950;-122.338;2022-10-22T01:06:00;100857.47;;;16.27;70.77
70009;BME280;59542;37.950;-122.338;2022-10-22T01:16:33;100844.22;;;15.97;73.19
70009;BME280;59542;37.950;-122.338;2022-10-22T01:22:11;100847.63;;;15.93;73.57
70009;BME280;59542;37.950;-122.338;2022-10-22T01:24:55;100856.78;;;15.92;73.57
70009;BME280;59542;37.950;-122.338;2022-10-22T01:27:52;100865.81;;;15.97;73.60
70009;BME280;59542;37.950;-122.338;2022-10-22T01:30:22;100874.06;;;15.91;73.69
70009;BME280;59542;37.950;-122.338;2022-10-22T01:32:52;100899.22;;;15.79;73.90
70009;BME280;59542;37.950;-122.338;2022-10-22T01:35:28;100911.16;;;15.83;73.50
70009;BME280;59542;37.950;-122.338;2022-10-22T01:37:58;100905.28;;;15.87;72.96
70009;BME280;59542;37.950;-122.338;2022-10-22T01:40:27;100916.34;;;15.73;73.92
70009;BME280;59542;37.950;-122.338;2022-10-22T01:43:12;100922.47;;;15.69;73.95
70009;BME280;59542;37.950;-122.338;2022-10-22T01:45:46;100919.88;;;15.62;73.38
70009;BME280;59542;37.950;-122.338;2022-10-22T01:54:20;100923.28;;;15.46;73.44
70009;BME280;59542;37.950;-122.338;2022-10-22T02:00:07;100938.78;;;15.50;73.00
70009;BME280;59542;37.950;-122.338;2022-10-22T02:05:11;100930.91;;;15.14;74.66
70009;BME280;59542;37.950;-122.338;2022-10-22T02:07:46;100935.13;;;15.10;74.90
70009;BME280;59542;37.950;-122.338;2022-10-22T02:10:15;100950.34;;;14.92;75.76
70009;BME280;59542;37.950;-122.338;2022-10-22T02:12:45;100953.28;;;14.91;75.86
70009;BME280;59542;37.950;-122.338;2022-10-22T02:15:14;100953.16;;;15.09;75.39
70009;BME280;59542;37.950;-122.338;2022-10-22T02:17:44;100960.13;;;15.17;75.00
70009;BME280;59542;37.950;-122.338;2022-10-22T02:20:31;100960.19;;;15.10;75.49
70009;BME280;59542;37.950;-122.338;2022-10-22T02:22:59;100968.28;;;15.10;75.40
70009;BME280;59542;37.950;-122.338;2022-10-22T02:25:28;100964.69;;;15.16;75.16
70009;BME280;59542;37.950;-122.338;2022-10-22T02:28:03;100946.25;;;15.01;75.47
70009;BME280;59542;37.950;-122.338;2022-10-22T02:30:32;100942.00;;;14.82;76.48
70009;BME280;59542;37.950;-122.338;2022-10-22T02:33:20;100934.66;;;15.01;75.68
70009;BME280;59542;37.950;-122.338;2022-10-22T02:35:48;100929.38;;;14.94;75.82
70009;BME280;59542;37.950;-122.338;2022-10-22T02:38:16;100927.84;;;14.87;76.63
70009;BME280;59542;37.950;-122.338;2022-10-22T02:40:43;100916.34;;;14.79;76.61
70009;BME280;59542;37.950;-122.338;2022-10-22T02:43:10;100912.97;;;14.84;76.35
70009;BME280;59542;37.950;-122.338;2022-10-22T02:45:37;100898.06;;;14.82;76.48
70009;BME280;59542;37.950;-122.338;2022-10-22T02:48:03;100888.69;;;14.72;76.35
70009;BME280;59542;37.950;-122.338;2022-10-22T02:50:29;100896.44;;;14.81;76.45
70009;BME280;59542;37.950;-122.338;2022-10-22T02:52:55;100891.03;;;14.69;77.11
70009;BME280;59542;37.950;-122.338;2022-10-22T02:55:22;100880.00;;;14.82;76.57
70009;BME280;59542;37.950;-122.338;2022-10-22T02:57:48;100872.06;;;14.75;76.92
70009;BME280;59542;37.950;-122.338;2022-10-22T03:00:14;100890.22;;;14.80;76.91
70009;BME280;59542;37.950;-122.338;2022-10-22T03:02:41;100888.09;;;14.82;76.95
70009;BME280;59542;37.950;-122.338;2022-10-22T03:05:07;100879.06;;;14.76;77.29
70009;BME280;59542;37.950;-122.338;2022-10-22T03:07:34;100873.22;;;14.68;77.48
70009;BME280;59542;37.950;-122.338;2022-10-22T03:10:00;100858.69;;;14.81;77.33
70009;BME280;59542;37.950;-122.338;2022-10-22T03:12:26;100863.84;;;14.82;77.06
70009;BME280;59542;37.950;-122.338;2022-10-22T03:14:52;100850.50;;;14.75;77.60
70009;BME280;59542;37.950;-122.338;2022-10-22T03:17:18;100856.13;;;14.86;76.99
70009;BME280;59542;37.950;-122.338;2022-10-22T03:19:45;100860.13;;;14.83;77.88
70009;BME280;59542;37.950;-122.338;2022-10-22T03:22:24;100862.56;;;14.73;78.53
70009;BME280;59542;37.950;-122.338;2022-10-22T03:24:54;100866.78;;;14.69;78.72
70009;BME280;59542;37.950;-122.338;2022-10-22T03:27:23;100868.78;;;14.73;78.14
70009;BME280;59542;37.950;-122.338;2022-10-22T03:29:51;100863.63;;;14.84;77.95
70009;BME280;59542;37.950;-122.338;2022-10-22T03:32:17;100873.81;;;14.70;78.50
70009;BME280;59542;37.950;-122.338;2022-10-22T03:34:44;100884.69;;;14.75;78.56
70009;BME280;59542;37.950;-122.338;2022-10-22T03:37:10;100876.75;;;14.80;78.38
70009;BME280;59542;37.950;-122.338;2022-10-22T03:39:37;100892.22;;;14.73;78.73
70009;BME280;59542;37.950;-122.338;2022-10-22T03:42:04;100893.13;;;14.67;78.79
70009;BME280;59542;37.950;-122.338;2022-10-22T03:44:32;100878.97;;;14.71;78.52
70009;BME280;59542;37.950;-122.338;2022-10-22T03:46:58;100876.72;;;14.68;78.47
70009;BME280;59542;37.950;-122.338;2022-10-22T03:49:24;100871.13;;;14.82;77.94
70009;BME280;59542;37.950;-122.338;2022-10-22T03:51:50;100878.50;;;14.86;77.22
70009;BME280;59542;37.950;-122.338;2022-10-22T03:54:18;100881.06;;;14.69;78.00
70009;BME280;59542;37.950;-122.338;2022-10-22T03:56:44;100883.06;;;14.74;77.65
70009;BME280;59542;37.950;-122.338;2022-10-22T03:59:10;100898.41;;;14.62;78.21
70009;BME280;59542;37.950;-122.338;2022-10-22T04:01:38;100907.19;;;14.69;77.61
70009;BME280;59542;37.950;-122.338;2022-10-22T04:04:04;100903.44;;;14.70;77.51
70009;BME280;59542;37.950;-122.338;2022-10-22T04:06:30;100897.34;;;14.74;77.62
70009;BME280;59542;37.950;-122.338;2022-10-22T04:08:57;100896.16;;;14.70;77.76
70009;BME280;59542;37.950;-122.338;2022-10-22T04:11:24;100895.84;;;14.67;77.82
70009;BME280;59542;37.950;-122.338;2022-10-22T04:13:50;100895.56;;;14.57;78.54
70009;BME280;59542;37.950;-122.338;2022-10-22T04:16:18;100892.28;;;14.55;78.36
70009;BME280;59542;37.950;-122.338;2022-10-22T04:18:46;100891.44;;;14.54;78.35
70009;BME280;59542;37.950;-122.338;2022-10-22T04:21:14;100889.13;;;14.58;78.15
70009;BME280;59542;37.950;-122.338;2022-10-22T04:23:45;100893.00;;;14.62;77.89
70009;BME280;59542;37.950;-122.338;2022-10-22T04:26:12;100877.47;;;14.45;78.63
70009;BME280;59542;37.950;-122.338;2022-10-22T04:28:38;100867.94;;;14.61;78.07
70009;BME280;59542;37.950;-122.338;2022-10-22T04:31:12;100877.56;;;14.69;77.12
70009;BME280;59542;37.950;-122.338;2022-10-22T04:33:39;100875.66;;;14.58;77.52
70009;BME280;59542;37.950;-122.338;2022-10-22T04:36:11;100870.63;;;14.49;77.76
70009;BME280;59542;37.950;-122.338;2022-10-22T04:38:38;100867.25;;;14.66;76.86
70009;BME280;59542;37.950;-122.338;2022-10-22T04:41:09;100861.13;;;14.59;77.33
70009;BME280;59542;37.950;-122.338;2022-10-22T04:43:35;100862.88;;;14.53;77.71
70009;BME280;59542;37.950;-122.338;2022-10-22T04:46:02;100865.25;;;14.61;77.75
70009;BME280;59542;37.950;-122.338;2022-10-22T04:48:28;100868.34;;;14.46;78.45
70009;BME280;59542;37.950;-122.338;2022-10-22T04:50:57;100877.78;;;14.56;78.18
70009;BME280;59542;37.950;-122.338;2022-10-22T04:53:23;100870.22;;;14.46;79.11
70009;BME280;59542;37.950;-122.338;2022-10-22T04:55:49;100865.06;;;14.44;79.45
70009;BME280;59542;37.950;-122.338;2022-10-22T04:58:16;100861.00;;;14.53;79.20
70009;BME280;59542;37.950;-122.338;2022-10-22T05:00:42;100851.81;;;14.43;80.02
70009;BME280;59542;37.950;-122.338;2022-10-22T05:03:08;100856.19;;;14.44;80.14
70009;BME280;59542;37.950;-122.338;2022-10-22T05:05:34;100845.78;;;14.47;80.28
70009;BME280;59542;37.950;-122.338;2022-10-22T05:08:00;100839.69;;;14.52;80.37
70009;BME280;59542;37.950;-122.338;2022-10-22T05:10:27;100830.06;;;14.44;80.20
70009;BME280;59542;37.950;-122.338;2022-10-22T05:12:53;100821.25;;;14.37;79.93
70009;BME280;59542;37.950;-122.338;2022-10-22T05:15:19;100832.25;;;14.36;80.43
70009;BME280;59542;37.950;-122.338;2022-10-22T05:17:45;100827.53;;;14.49;79.86
70009;BME280;59542;37.950;-122.338;2022-10-22T05:20:11;100834.06;;;14.53;79.40
70009;BME280;59542;37.950;-122.338;2022-10-22T05:22:37;100830.44;;;14.48;79.00
70009;BME280;59542;37.950;-122.338;2022-10-22T05:25:04;100826.94;;;14.47;79.27
70009;BME280;59542;37.950;-122.338;2022-10-22T05:27:30;100830.28;;;14.43;79.47
70009;BME280;59542;37.950;-122.338;2022-10-22T05:29:56;100838.16;;;14.44;79.55
70009;BME280;59542;37.950;-122.338;2022-10-22T05:32:22;100841.25;;;14.30;80.13
70009;BME280;59542;37.950;-122.338;2022-10-22T05:34:49;100842.75;;;14.25;80.17
70009;BME280;59542;37.950;-122.338;2022-10-22T05:37:15;100843.38;;;14.27;80.57
70009;BME280;59542;37.950;-122.338;2022-10-22T05:39:41;100848.75;;;14.27;80.61
70009;BME280;59542;37.950;-122.338;2022-10-22T05:42:07;100845.84;;;14.29;80.19
70009;BME280;59542;37.950;-122.338;2022-10-22T05:44:33;100860.81;;;14.37;79.85
70009;BME280;59542;37.950;-122.338;2022-10-22T05:47:00;100847.34;;;14.25;80.12
70009;BME280;59542;37.950;-122.338;2022-10-22T05:49:26;100855.53;;;14.30;80.00
70009;BME280;59542;37.950;-122.338;2022-10-22T05:51:52;100859.97;;;14.24;80.02
70009;BME280;59542;37.950;-122.338;2022-10-22T05:54:19;100864.09;;;14.27;79.88
70009;BME280;59542;37.950;-122.338;2022-10-22T05:56:46;100868.44;;;14.28;80.20
70009;BME280;59542;37.950;-122.338;2022-10-22T05:59:13;100867.38;;;14.29;79.70
70009;BME280;59542;37.950;-122.338;2022-10-22T06:01:39;100855.88;;;14.22;80.17
70009;BME280;59542;37.950;-122.338;2022-10-22T06:04:09;100871.13;;;14.28;79.86
70009;BME280;59542;37.950;-122.338;2022-10-22T06:06:39;100853.91;;;14.29;79.79
70009;BME280;59542;37.950;-122.338;2022-10-22T06:09:27;100865.16;;;14.38;79.33
70009;BME280;59542;37.950;-122.338;2022-10-22T06:11:54;100848.97;;;14.26;79.40
70009;BME280;59542;37.950;-122.338;2022-10-22T06:14:21;100859.41;;;14.22;79.21
70009;BME280;59542;37.950;-122.338;2022-10-22T06:16:48;100861.63;;;14.37;78.06
70009;BME280;59542;37.950;-122.338;2022-10-22T06:19:16;100875.34;;;14.36;77.83
70009;BME280;59542;37.950;-122.338;2022-10-22T06:21:43;100866.22;;;14.37;77.85
70009;BME280;59542;37.950;-122.338;2022-10-22T06:24:10;100855.78;;;14.29;78.04
70009;BME280;59542;37.950;-122.338;2022-10-22T06:26:37;100849.09;;;14.31;78.24
70009;BME280;59542;37.950;-122.338;2022-10-22T06:29:04;100842.66;;;14.32;78.30
70009;BME280;59542;37.950;-122.338;2022-10-22T06:31:30;100854.50;;;14.31;77.81
70009;BME280;59542;37.950;-122.338;2022-10-22T06:34:06;100852.31;;;14.40;77.41
70009;BME280;59542;37.950;-122.338;2022-10-22T06:36:33;100855.22;;;14.38;76.79
70009;BME280;59542;37.950;-122.338;2022-10-22T06:38:59;100865.06;;;14.44;76.63
70009;BME280;59542;37.950;-122.338;2022-10-22T06:41:25;100877.34;;;14.40;76.79
70009;BME280;59542;37.950;-122.338;2022-10-22T06:43:52;100862.38;;;14.44;76.46
70009;BME280;59542;37.950;-122.338;2022-10-22T06:46:20;100859.06;;;14.31;76.93
70009;BME280;59542;37.950;-122.338;2022-10-22T06:48:55;100856.38;;;14.31;76.88
70009;BME280;59542;37.950;-122.338;2022-10-22T06:51:21;100860.50;;;14.45;76.07
70009;BME280;59542;37.950;-122.338;2022-10-22T06:53:48;100858.03;;;14.43;75.39
70009;BME280;59542;37.950;-122.338;2022-10-22T06:56:19;100857.91;;;14.38;75.95
70009;BME280;59542;37.950;-122.338;2022-10-22T06:58:47;100862.81;;;14.41;75.58
70009;BME280;59542;37.950;-122.338;2022-10-22T07:01:15;100850.88;;;14.37;75.52
70009;BME280;59542;37.950;-122.338;2022-10-22T07:03:42;100846.91;;;14.40;75.30
70009;BME280;59542;37.950;-122.338;2022-10-22T07:06:10;100842.22;;;14.35;75.49
70009;BME280;59542;37.950;-122.338;2022-10-22T07:08:38;100857.91;;;14.38;75.45
70009;BME280;59542;37.950;-122.338;2022-10-22T07:11:40;100835.66;;;14.43;75.54
70009;BME280;59542;37.950;-122.338;2022-10-22T07:14:07;100843.13;;;14.29;76.28
70009;BME280;59542;37.950;-122.338;2022-10-22T07:16:34;100842.78;;;14.37;76.19
70009;BME280;59542;37.950;-122.338;2022-10-22T07:19:01;100845.16;;;14.45;76.43
70009;BME280;59542;37.950;-122.338;2022-10-22T07:21:28;100847.25;;;14.43;76.82
70009;BME280;59542;37.950;-122.338;2022-10-22T07:23:54;100815.34;;;14.47;77.14
70009;BME280;59542;37.950;-122.338;2022-10-22T07:26:21;100827.81;;;14.41;77.55
70009;BME280;59542;37.950;-122.338;2022-10-22T07:28:50;100821.25;;;14.37;78.48
70009;BME280;59542;37.950;-122.338;2022-10-22T07:31:17;100822.91;;;14.38;79.05
70009;BME280;59542;37.950;-122.338;2022-10-22T07:33:43;100806.19;;;14.48;79.39
70009;BME280;59542;37.950;-122.338;2022-10-22T07:36:12;100818.53;;;14.56;79.31
70009;BME280;59542;37.950;-122.338;2022-10-22T07:38:47;100799.53;;;14.50;79.42
70009;BME280;59542;37.950;-122.338;2022-10-22T07:41:15;100809.09;;;14.46;79.60
70009;BME280;59542;37.950;-122.338;2022-10-22T07:43:42;100800.69;;;14.55;79.24
70009;BME280;59542;37.950;-122.338;2022-10-22T07:46:08;100804.94;;;14.50;79.66
70009;BME280;59542;37.950;-122.338;2022-10-22T07:48:35;100810.66;;;14.54;79.92
70009;BME280;59542;37.950;-122.338;2022-10-22T07:51:02;100811.94;;;14.51;80.77
70009;BME280;59542;37.950;-122.338;2022-10-22T07:53:29;100837.84;;;14.64;80.55
70009;BME280;59542;37.950;-122.338;2022-10-22T07:55:55;100820.16;;;14.57;80.83
70009;BME280;59542;37.950;-122.338;2022-10-22T07:58:22;100810.19;;;14.57;81.68
70009;BME280;59542;37.950;-122.338;2022-10-22T08:00:49;100822.84;;;14.57;81.54
70009;BME280;59542;37.950;-122.338;2022-10-22T08:03:17;100829.06;;;14.69;81.56
70009;BME280;59542;37.950;-122.338;2022-10-22T08:05:43;100816.66;;;14.68;81.96
70009;BME280;59542;37.950;-122.338;2022-10-22T08:08:11;100805.88;;;14.68;81.78
70009;BME280;59542;37.950;-122.338;2022-10-22T08:10:38;100795.09;;;14.68;82.11
70009;BME280;59542;37.950;-122.338;2022-10-22T08:13:04;100799.31;;;14.64;82.41
70009;BME280;59542;37.950;-122.338;2022-10-22T08:15:31;100786.53;;;14.59;82.80
70009;BME280;59542;37.950;-122.338;2022-10-22T08:17:57;100789.00;;;14.61;82.96
70009;BME280;59542;37.950;-122.338;2022-10-22T08:20:23;100771.19;;;14.60;83.31
70009;BME280;59542;37.950;-122.338;2022-10-22T08:22:49;100773.31;;;14.58;83.48
70009;BME280;59542;37.950;-122.338;2022-10-22T08:25:16;100769.56;;;14.59;83.67
70009;BME280;59542;37.950;-122.338;2022-10-22T08:27:43;100766.16;;;14.63;83.90
70009;BME280;59542;37.950;-122.338;2022-10-22T08:30:11;100778.56;;;14.76;83.53
70009;BME280;59542;37.950;-122.338;2022-10-22T08:32:37;100765.22;;;14.69;83.93
70009;BME280;59542;37.950;-122.338;2022-10-22T08:35:04;100780.31;;;14.59;84.29
70009;BME280;59542;37.950;-122.338;2022-10-22T08:37:30;100768.53;;;14.71;84.10
70009;BME280;59542;37.950;-122.338;2022-10-22T08:39:56;100763.59;;;14.68;84.38
70009;BME280;59542;37.950;-122.338;2022-10-22T08:51:03;100768.63;;;14.53;85.11
70009;BME280;59542;37.950;-122.338;2022-10-22T08:56:30;100766.94;;;14.40;86.33
70009;BME280;59542;37.950;-122.338;2022-10-22T08:59:44;100762.03;;;14.49;86.32
70009;BME280;59542;37.950;-122.338;2022-10-22T09:01:52;100747.06;;;14.53;86.39
70009;BME280;59542;37.950;-122.338;2022-10-22T09:06:52;100742.38;;;14.48;87.92
70009;BME280;59542;37.950;-122.338;2022-10-22T09:09:19;100733.59;;;14.53;88.17
70009;BME280;59542;37.950;-122.338;2022-10-22T09:11:49;100724.72;;;14.52;89.03
70009;BME280;59542;37.950;-122.338;2022-10-22T09:14:20;100728.00;;;14.66;89.30
70009;BME280;59542;37.950;-122.338;2022-10-22T09:17:12;100728.69;;;14.73;89.09
70009;BME280;59542;37.950;-122.338;2022-10-22T09:25:30;100745.66;;;14.86;89.40
70009;BME280;59542;37.950;-122.338;2022-10-22T09:27:57;100759.13;;;14.86;89.85
70009;BME280;59542;37.950;-122.338;2022-10-22T09:30:26;100756.28;;;14.92;89.93
70009;BME280;59542;37.950;-122.338;2022-10-22T09:38:22;100765.09;;;14.88;89.99
70009;BME280;59542;37.950;-122.338;2022-10-22T09:40:51;100781.16;;;14.83;90.03
70009;BME280;59542;37.950;-122.338;2022-10-22T09:43:18;100782.19;;;14.93;89.41
70009;BME280;59542;37.950;-122.338;2022-10-22T09:45:46;100785.38;;;14.90;89.98
70009;BME280;59542;37.950;-122.338;2022-10-22T09:48:20;100772.03;;;14.84;90.37
70009;BME280;59542;37.950;-122.338;2022-10-22T09:53:42;100771.19;;;14.83;90.56
70009;BME280;59542;37.950;-122.338;2022-10-22T09:58:51;100764.75;;;14.84;90.00
70009;BME280;59542;37.950;-122.338;2022-10-22T10:03:51;100730.31;;;14.74;89.94
70009;BME280;59542;37.950;-122.338;2022-10-22T10:06:22;100703.03;;;14.83;89.84
70009;BME280;59542;37.950;-122.338;2022-10-22T10:08:48;100701.03;;;14.78;90.16
70009;BME280;59542;37.950;-122.338;2022-10-22T10:17:07;100718.44;;;14.87;89.82
70009;BME280;59542;37.950;-122.338;2022-10-22T10:22:24;100750.56;;;14.89;88.90
70009;BME280;59542;37.950;-122.338;2022-10-22T10:25:23;100721.16;;;14.87;88.49
70009;BME280;59542;37.950;-122.338;2022-10-22T10:30:25;100708.06;;;14.79;88.58
70009;BME280;59542;37.950;-122.338;2022-10-22T10:33:22;100717.66;;;14.75;89.58
70009;BME280;59542;37.950;-122.338;2022-10-22T10:36:17;100695.50;;;14.85;88.44
70009;BME280;59542;37.950;-122.338;2022-10-22T10:38:55;100695.34;;;15.03;87.71
70009;BME280;59542;37.950;-122.338;2022-10-22T10:41:25;100709.31;;;15.00;87.38
70009;BME280;59542;37.950;-122.338;2022-10-22T10:44:07;100692.69;;;14.91;87.79
70009;BME280;59542;37.950;-122.338;2022-10-22T10:49:35;100689.53;;;14.71;89.17
70009;BME280;59542;37.950;-122.338;2022-10-22T11:00:18;100685.53;;;14.85;88.74
70009;BME280;59542;37.950;-122.338;2022-10-22T11:05:30;100665.72;;;14.91;88.70
70009;BME280;59542;37.950;-122.338;2022-10-22T11:08:06;100650.53;;;14.73;89.09
70009;BME280;59542;37.950;-122.338;2022-10-22T11:10:45;100659.28;;;14.92;88.41
70009;BME280;59542;37.950;-122.338;2022-10-22T11:16:18;100659.97;;;14.88;88.17
70009;BME280;59542;37.950;-122.338;2022-10-22T11:21:55;100662.38;;;15.13;86.54
70009;BME280;59542;37.950;-122.338;2022-10-22T11:30:07;100681.16;;;15.08;86.27
70009;BME280;59542;37.950;-122.338;2022-10-22T11:32:38;100662.66;;;14.99;86.47
70009;BME280;59542;37.950;-122.338;2022-10-22T11:35:08;100663.59;;;14.93;86.54
70009;BME280;59542;37.950;-122.338;2022-10-22T11:37:37;100660.03;;;15.04;85.91
70009;BME280;59542;37.950;-122.338;2022-10-22T11:42:43;100652.56;;;15.35;84.74
70009;BME280;59542;37.950;-122.338;2022-10-22T11:47:57;100645.19;;;15.02;86.74
70009;BME280;59542;37.950;-122.338;2022-10-22T11:50:27;100668.88;;;15.00;87.35
70009;BME280;59542;37.950;-122.338;2022-10-22T11:53:01;100680.09;;;15.09;87.08
70009;BME280;59542;37.950;-122.338;2022-10-22T11:55:47;100676.41;;;15.15;87.28
70009;BME280;59542;37.950;-122.338;2022-10-22T11:58:39;100658.81;;;15.24;86.97
70009;BME280;59542;37.950;-122.338;2022-10-22T12:11:46;100664.72;;;15.38;86.30
70009;BME280;59542;37.950;-122.338;2022-10-22T12:14:21;100665.56;;;15.38;86.45
70009;BME280;59542;37.950;-122.338;2022-10-22T12:21:53;100670.09;;;15.49;86.17
70009;BME280;59542;37.950;-122.338;2022-10-22T12:24:22;100664.75;;;15.54;86.13
70009;BME280;59542;37.950;-122.338;2022-10-22T12:26:50;100660.03;;;15.62;85.55
70009;BME280;59542;37.950;-122.338;2022-10-22T12:29:20;100656.88;;;15.65;85.09
70009;BME280;59542;37.950;-122.338;2022-10-22T12:31:51;100659.34;;;15.66;84.81
70009;BME280;59542;37.950;-122.338;2022-10-22T12:34:21;100665.91;;;15.58;84.88
70009;BME280;59542;37.950;-122.338;2022-10-22T12:36:50;100657.69;;;15.65;84.37
70009;BME280;59542;37.950;-122.338;2022-10-22T12:39:19;100658.53;;;15.54;84.47
70009;BME280;59542;37.950;-122.338;2022-10-22T12:41:46;100654.03;;;15.59;83.81
70009;BME280;59542;37.950;-122.338;2022-10-22T12:44:15;100657.69;;;15.65;83.28
70009;BME280;59542;37.950;-122.338;2022-10-22T12:46:44;100669.47;;;15.76;82.49
70009;BME280;59542;37.950;-122.338;2022-10-22T12:49:19;100662.06;;;15.83;81.86
70009;BME280;59542;37.950;-122.338;2022-10-22T12:51:47;100654.34;;;15.92;81.16
70009;BME280;59542;37.950;-122.338;2022-10-22T12:54:25;100657.63;;;15.77;81.67
70009;BME280;59542;37.950;-122.338;2022-10-22T12:56:54;100653.78;;;15.73;82.15
70009;BME280;59542;37.950;-122.338;2022-10-22T12:59:22;100650.28;;;15.72;82.03
70009;BME280;59542;37.950;-122.338;2022-10-22T13:01:50;100652.72;;;15.74;81.61
70009;BME280;59542;37.950;-122.338;2022-10-22T13:04:32;100654.03;;;15.71;81.54
70009;BME280;59542;37.950;-122.338;2022-10-22T13:09:38;100640.75;;;15.70;81.14
70009;BME280;59542;37.950;-122.338;2022-10-22T13:12:06;100658.28;;;15.67;81.00
70009;BME280;59542;37.950;-122.338;2022-10-22T13:14:35;100663.50;;;15.74;80.53
70009;BME280;59542;37.950;-122.338;2022-10-22T13:17:07;100657.38;;;15.95;79.71
70009;BME280;59542;37.950;-122.338;2022-10-22T13:19:43;100639.88;;;15.98;79.36
70009;BME280;59542;37.950;-122.338;2022-10-22T13:22:34;100642.56;;;15.81;80.06
70009;BME280;59542;37.950;-122.338;2022-10-22T13:30:24;100668.34;;;15.89;79.32
70009;BME280;59542;37.950;-122.338;2022-10-22T13:33:03;100664.66;;;15.78;79.59
70009;BME280;59542;37.950;-122.338;2022-10-22T13:35:32;100669.97;;;15.73;79.37
70009;BME280;59542;37.950;-122.338;2022-10-22T13:37:59;100668.25;;;15.83;79.06
70009;BME280;59542;37.950;-122.338;2022-10-22T13:40:26;100666.94;;;15.86;79.23
70009;BME280;59542;37.950;-122.338;2022-10-22T13:42:52;100671.69;;;15.79;79.25
70009;BME280;59542;37.950;-122.338;2022-10-22T13:45:19;100673.75;;;15.72;80.07
70009;BME280;59542;37.950;-122.338;2022-10-22T13:47:52;100668.25;;;15.67;80.65
70009;BME280;59542;37.950;-122.338;2022-10-22T13:50:20;100662.19;;;15.76;80.20
70009;BME280;59542;37.950;-122.338;2022-10-22T13:52:52;100656.22;;;15.74;80.33
70009;BME280;59542;37.950;-122.338;2022-10-22T13:55:24;100652.28;;;15.65;81.88
70009;BME280;59542;37.950;-122.338;2022-10-22T13:58:09;100650.44;;;15.66;81.96
70009;BME280;59542;37.950;-122.338;2022-10-22T14:00:37;100655.66;;;15.72;81.93
70009;BME280;59542;37.950;-122.338;2022-10-22T14:03:04;100657.13;;;15.63;82.77
70009;BME280;59542;37.950;-122.338;2022-10-22T14:05:31;100653.34;;;15.64;82.05
70009;BME280;59542;37.950;-122.338;2022-10-22T14:08:01;100663.44;;;15.40;83.04
70009;BME280;59542;37.950;-122.338;2022-10-22T14:10:27;100654.81;;;15.55;82.08
70009;BME280;59542;37.950;-122.338;2022-10-22T14:12:53;100660.56;;;15.47;81.86
70009;BME280;59542;37.950;-122.338;2022-10-22T14:15:23;100669.41;;;15.59;80.81
70009;BME280;59542;37.950;-122.338;2022-10-22T14:17:55;100670.81;;;15.45;80.49
70009;BME280;59542;37.950;-122.338;2022-10-22T14:20:25;100667.38;;;15.49;79.04
70009;BME280;59542;37.950;-122.338;2022-10-22T14:22:51;100670.97;;;15.38;78.62
70009;BME280;59542;37.950;-122.338;2022-10-22T14:25:23;100667.75;;;15.41;77.60
70009;BME280;59542;37.950;-122.338;2022-10-22T14:27:50;100673.16;;;15.41;76.37
70009;BME280;59542;37.950;-122.338;2022-10-22T14:30:19;100677.00;;;15.45;74.78
70009;BME280;59542;37.950;-122.338;2022-10-22T14:32:46;100676.41;;;15.43;74.99
70009;BME280;59542;37.950;-122.338;2022-10-22T14:35:17;100673.25;;;15.46;74.87